Homer, Michigan
Current Conditions -  °F | °C
As of 3:14 AM on Thursday 29 Jan 2015 (Local Time) from KRMY Reporting Station
Unknown Precip Unknown Precip  
Wind Chill: 20°   Ceiling: 8000
Heat Index: 28°   Visibility: 10mi
Dew Point: 21°   Wind: 9mph
Humidity: 74%   Direction: 160°SSE
Pressure: 29.87"   Gusts: NA
Location:  42.15°N, 84.81°W
Report Text: KRMY 290814Z AUTO 16008KT 10SM UP BKN080 OVC095 M02/M06 A2987 RMK AO2 T10201061
Loading
Personal Weather Stations






























Interactive Weather Map New forecast layout! Learn more

10-Day Weather Forecast

Advertisements
Track Severe Weather on mobile